Time,TemperatureF,DewpointF,PressureIn,WindDirection,WindDirectionDegrees,WindSpeedMPH,WindSpeedGustMPH,Humidity,HourlyPrecipIn,Conditions,Clouds,dailyrainin,SoftwareType,DateUTC
2013-02-03 00:03:00,49.0,46.0,30.18,NW,308,1.0,2.0,89,99.99,,,-99.99,,2013-02-03 05:03:00,
2013-02-03 00:12:00,49.0,46.0,30.18,NW,308,1.0,2.0,89,99.99,,,-99.99,,2013-02-03 05:12:00,
2013-02-03 00:22:00,50.0,46.0,30.17,North,356,0.0,1.0,86,99.99,,,-99.99,,2013-02-03 05:22:00,
2013-02-03 00:32:00,51.0,46.0,30.17,NNE,23,1.0,3.0,83,99.99,,,-99.99,,2013-02-03 05:32:00,
2013-02-03 00:42:00,51.0,46.0,30.17,NNE,23,1.0,3.0,83,99.99,,,-99.99,,2013-02-03 05:42:00,
2013-02-03 00:52:00,52.0,46.0,30.17,NNW,333,1.0,4.0,80,99.99,,,-99.99,,2013-02-03 05:52:00,
2013-02-03 01:02:00,52.0,45.0,30.17,NE,38,2.0,6.0,77,99.99,,,-99.99,,2013-02-03 06:02:00,
2013-02-03 01:11:00,52.0,45.0,30.17,NE,38,2.0,6.0,77,99.99,,,-99.99,,2013-02-03 06:11:00,
2013-02-03 01:21:00,52.0,45.0,30.16,NNW,328,2.0,4.0,77,99.99,,,-99.99,,2013-02-03 06:21:00,
2013-02-03 01:32:00,52.0,45.0,30.16,NW,319,1.0,2.0,77,99.99,,,-99.99,,2013-02-03 06:32:00,
2013-02-03 01:42:00,52.0,45.0,30.16,NW,319,1.0,2.0,77,99.99,,,-99.99,,2013-02-03 06:42:00,
2013-02-03 01:52:00,52.0,45.0,30.16,NNW,343,1.0,3.0,78,99.99,,,-99.99,,2013-02-03 06:52:00,
2013-02-03 02:01:00,51.0,44.0,30.15,NNE,14,1.0,4.0,78,99.99,,,-99.99,,2013-02-03 07:01:00,
2013-02-03 02:11:00,51.0,44.0,30.15,NNE,14,1.0,4.0,78,99.99,,,-99.99,,2013-02-03 07:11:00,
2013-02-03 02:21:00,50.0,43.0,30.15,NNE,14,2.0,5.0,78,99.99,,,-99.99,,2013-02-03 07:21:00,
2013-02-03 02:31:00,50.0,43.0,30.15,NNW,335,2.0,3.0,78,99.99,,,-99.99,,2013-02-03 07:31:00,
2013-02-03 02:42:00,50.0,43.0,30.15,NNW,335,2.0,3.0,78,99.99,,,-99.99,,2013-02-03 07:42:00,
2013-02-03 02:52:00,50.0,43.0,30.14,NW,323,1.0,4.0,78,99.99,,,-99.99,,2013-02-03 07:52:00,
2013-02-03 03:01:00,50.0,43.0,30.14,NNW,333,2.0,3.0,78,99.99,,,-99.99,,2013-02-03 08:01:00,
2013-02-03 03:11:00,50.0,43.0,30.14,NNW,333,2.0,3.0,78,99.99,,,-99.99,,2013-02-03 08:11:00,
2013-02-03 03:22:00,50.0,43.0,30.14,NW,325,0.0,1.0,78,99.99,,,-99.99,,2013-02-03 08:22:00,
2013-02-03 03:32:00,49.0,43.0,30.13,North,0,0.0,0.0,80,99.99,,,-99.99,,2013-02-03 08:32:00,
2013-02-03 03:41:00,49.0,43.0,30.13,North,0,0.0,0.0,80,99.99,,,-99.99,,2013-02-03 08:41:00,
2013-02-03 03:52:00,48.0,43.0,30.13,WNW,301,1.0,2.0,82,99.99,,,-99.99,,2013-02-03 08:52:00,
2013-02-03 04:02:00,46.0,42.0,30.13,NNW,345,0.0,1.0,86,99.99,,,-99.99,,2013-02-03 09:02:00,
2013-02-03 04:11:00,46.0,42.0,30.13,NNW,345,0.0,1.0,86,99.99,,,-99.99,,2013-02-03 09:11:00,
2013-02-03 04:21:00,46.0,42.0,30.14,NW,325,0.0,2.0,87,99.99,,,-99.99,,2013-02-03 09:21:00,
2013-02-03 04:31:00,45.0,42.0,30.13,North,354,0.0,1.0,89,99.99,,,-99.99,,2013-02-03 09:31:00,
2013-02-03 04:42:00,45.0,42.0,30.13,North,354,0.0,1.0,89,99.99,,,-99.99,,2013-02-03 09:42:00,
2013-02-03 04:52:00,45.0,42.0,30.14,WNW,290,0.0,2.0,90,99.99,,,-99.99,,2013-02-03 09:52:00,
2013-02-03 05:01:00,45.0,43.0,30.14,NNW,329,1.0,3.0,91,99.99,,,-99.99,,2013-02-03 10:01:00,
2013-02-03 05:11:00,46.0,43.0,30.14,NNW,338,2.0,4.0,89,99.99,,,-99.99,,2013-02-03 10:11:00,
2013-02-03 05:21:00,46.0,43.0,30.14,NNW,338,2.0,4.0,89,99.99,,,-99.99,,2013-02-03 10:21:00,
2013-02-03 05:31:00,47.0,42.0,30.15,WNW,294,3.0,5.0,82,99.99,,,-99.99,,2013-02-03 10:31:00,
2013-02-03 05:42:00,47.0,42.0,30.15,WNW,294,3.0,5.0,82,99.99,,,-99.99,,2013-02-03 10:42:00,
2013-02-03 05:53:00,47.0,41.0,30.15,NNE,13,2.0,5.0,79,99.99,,,-99.99,,2013-02-03 10:53:00,
2013-02-03 06:02:00,47.0,41.0,30.16,North,8,2.0,4.0,78,99.99,,,-99.99,,2013-02-03 11:02:00,
2013-02-03 06:11:00,47.0,41.0,30.16,North,8,2.0,4.0,78,99.99,,,-99.99,,2013-02-03 11:11:00,
2013-02-03 06:22:00,47.0,41.0,30.15,NNE,14,1.0,2.0,79,99.99,,,-99.99,,2013-02-03 11:22:00,
2013-02-03 06:32:00,46.0,40.0,30.16,North,3,1.0,2.0,80,99.99,,,-99.99,,2013-02-03 11:32:00,
2013-02-03 06:42:00,46.0,40.0,30.16,North,3,1.0,2.0,80,99.99,,,-99.99,,2013-02-03 11:42:00,
2013-02-03 06:52:00,45.0,40.0,30.17,NNW,345,2.0,4.0,82,99.99,,,-99.99,,2013-02-03 11:52:00,
2013-02-03 07:02:00,46.0,41.0,30.18,North,1,2.0,4.0,84,99.99,,,-99.99,,2013-02-03 12:02:00,
2013-02-03 07:12:00,46.0,41.0,30.18,North,1,2.0,4.0,84,99.99,,,-99.99,,2013-02-03 12:12:00,
2013-02-03 07:22:00,46.0,41.0,30.18,NNE,15,1.0,3.0,83,99.99,,,-99.99,,2013-02-03 12:22:00,
2013-02-03 07:32:00,45.0,41.0,30.19,North,0,0.0,0.0,85,99.99,,,-99.99,,2013-02-03 12:32:00,
2013-02-03 07:42:00,45.0,41.0,30.19,North,0,0.0,0.0,85,99.99,,,-99.99,,2013-02-03 12:42:00,
2013-02-03 07:53:00,43.0,40.0,30.19,North,0,0.0,0.0,89,99.99,,,-99.99,,2013-02-03 12:53:00,
2013-02-03 08:03:00,43.0,41.0,30.19,North,0,0.0,0.0,92,99.99,,,-99.99,,2013-02-03 13:03:00,
2013-02-03 08:11:00,44.0,43.0,30.19,North,0,0.0,0.0,95,99.99,,,-99.99,,2013-02-03 13:11:00,
2013-02-03 08:21:00,44.0,43.0,30.19,North,0,0.0,0.0,95,99.99,,,-99.99,,2013-02-03 13:21:00,
2013-02-03 08:32:00,45.0,44.0,30.21,North,0,0.0,0.0,96,99.99,,,-99.99,,2013-02-03 13:32:00,
2013-02-03 08:42:00,45.0,44.0,30.21,North,0,0.0,0.0,96,99.99,,,-99.99,,2013-02-03 13:42:00,
2013-02-03 08:52:00,48.0,46.0,30.21,North,0,0.0,0.0,94,99.99,,,-99.99,,2013-02-03 13:52:00,
2013-02-03 09:02:00,50.0,46.0,30.21,NE,34,3.0,6.0,87,99.99,,,-99.99,,2013-02-03 14:02:00,
2013-02-03 09:11:00,50.0,46.0,30.21,NE,34,3.0,6.0,87,99.99,,,-99.99,,2013-02-03 14:11:00,
2013-02-03 09:21:00,53.0,48.0,30.21,NE,39,4.0,7.0,82,99.99,,,-99.99,,2013-02-03 14:21:00,
2013-02-03 09:32:00,55.0,47.0,30.21,NNE,13,4.0,7.0,74,99.99,,,-99.99,,2013-02-03 14:32:00,
2013-02-03 09:42:00,55.0,47.0,30.21,NNE,13,4.0,7.0,74,99.99,,,-99.99,,2013-02-03 14:42:00,
2013-02-03 09:52:00,56.0,46.0,30.21,NE,42,4.0,8.0,70,99.99,,,-99.99,,2013-02-03 14:52:00,
2013-02-03 10:03:00,57.0,47.0,30.21,NE,34,2.0,6.0,68,99.99,,,-99.99,,2013-02-03 15:03:00,
2013-02-03 10:11:00,58.0,45.0,30.21,NNE,18,3.0,7.0,63,99.99,,,-99.99,,2013-02-03 15:11:00,
2013-02-03 10:22:00,58.0,45.0,30.21,NNE,18,3.0,7.0,63,99.99,,,-99.99,,2013-02-03 15:22:00,
2013-02-03 10:33:00,60.0,44.0,30.21,North,4,3.0,7.0,56,99.99,,,-99.99,,2013-02-03 15:33:00,
2013-02-03 10:42:00,60.0,44.0,30.21,North,4,3.0,7.0,56,99.99,,,-99.99,,2013-02-03 15:42:00,
2013-02-03 10:52:00,61.0,47.0,30.21,NE,38,6.0,10.0,59,99.99,,,-99.99,,2013-02-03 15:52:00,
2013-02-03 11:02:00,63.0,48.0,30.20,NNE,21,5.0,10.0,58,99.99,,,-99.99,,2013-02-03 16:02:00,
2013-02-03 11:11:00,63.0,48.0,30.20,NNE,21,5.0,10.0,58,99.99,,,-99.99,,2013-02-03 16:11:00,
2013-02-03 11:22:00,63.0,48.0,30.19,NNE,31,5.0,9.0,57,99.99,,,-99.99,,2013-02-03 16:22:00,
2013-02-03 11:33:00,64.0,48.0,30.19,NNE,31,6.0,12.0,56,99.99,,,-99.99,,2013-02-03 16:33:00,
2013-02-03 11:42:00,64.0,48.0,30.19,NNE,31,6.0,12.0,56,99.99,,,-99.99,,2013-02-03 16:42:00,
2013-02-03 11:52:00,65.0,48.0,30.18,NNE,31,3.0,10.0,55,99.99,,,-99.99,,2013-02-03 16:52:00,
2013-02-03 12:02:00,66.0,49.0,30.18,NNE,17,8.0,16.0,54,99.99,,,-99.99,,2013-02-03 17:02:00,
2013-02-03 12:11:00,66.0,49.0,30.18,NNE,17,8.0,16.0,54,99.99,,,-99.99,,2013-02-03 17:11:00,
2013-02-03 12:22:00,67.0,49.0,30.17,East,83,6.0,16.0,52,99.99,,,-99.99,,2013-02-03 17:22:00,
2013-02-03 12:32:00,67.0,48.0,30.16,NNE,17,6.0,10.0,51,99.99,,,-99.99,,2013-02-03 17:32:00,
2013-02-03 12:42:00,67.0,48.0,30.16,NNE,17,6.0,10.0,51,99.99,,,-99.99,,2013-02-03 17:42:00,
2013-02-03 12:52:00,68.0,49.0,30.16,NNE,31,7.0,13.0,51,99.99,,,-99.99,,2013-02-03 17:52:00,
2013-02-03 13:03:00,69.0,50.0,30.14,East,93,5.0,13.0,51,99.99,,,-99.99,,2013-02-03 18:03:00,
2013-02-03 13:12:00,69.0,50.0,30.14,East,93,5.0,13.0,51,99.99,,,-99.99,,2013-02-03 18:12:00,
2013-02-03 13:23:00,70.0,49.0,30.14,NW,309,7.0,15.0,47,99.99,,,-99.99,,2013-02-03 18:23:00,
2013-02-03 13:33:00,70.0,49.0,30.13,NNE,30,6.0,15.0,47,99.99,,,-99.99,,2013-02-03 18:33:00,
2013-02-03 13:42:00,70.0,49.0,30.13,NNE,30,6.0,15.0,47,99.99,,,-99.99,,2013-02-03 18:42:00,
2013-02-03 13:52:00,70.0,49.0,30.12,NNE,28,7.0,15.0,48,99.99,,,-99.99,,2013-02-03 18:52:00,
2013-02-03 14:02:00,71.0,49.0,30.11,WNW,298,6.0,11.0,46,99.99,,,-99.99,,2013-02-03 19:02:00,
2013-02-03 14:11:00,71.0,49.0,30.11,WNW,298,6.0,11.0,46,99.99,,,-99.99,,2013-02-03 19:11:00,
2013-02-03 14:22:00,71.0,49.0,30.10,NW,305,6.0,10.0,46,99.99,,,-99.99,,2013-02-03 19:22:00,
2013-02-03 14:32:00,71.0,49.0,30.10,NE,34,7.0,13.0,45,99.99,,,-99.99,,2013-02-03 19:32:00,
2013-02-03 14:42:00,71.0,49.0,30.10,NE,34,7.0,13.0,45,99.99,,,-99.99,,2013-02-03 19:42:00,
2013-02-03 14:52:00,72.0,49.0,30.09,NNE,18,5.0,12.0,44,99.99,,,-99.99,,2013-02-03 19:52:00,
2013-02-03 15:01:00,72.0,47.0,30.09,NW,326,9.0,15.0,41,99.99,,,-99.99,,2013-02-03 20:01:00,
2013-02-03 15:12:00,72.0,47.0,30.09,NW,326,9.0,15.0,41,99.99,,,-99.99,,2013-02-03 20:12:00,
2013-02-03 15:22:00,72.0,48.0,30.09,NW,304,7.0,13.0,43,99.99,,,-99.99,,2013-02-03 20:22:00,
2013-02-03 15:33:00,72.0,48.0,30.09,NW,319,6.0,12.0,42,99.99,,,-99.99,,2013-02-03 20:33:00,
2013-02-03 15:42:00,72.0,48.0,30.09,NW,319,6.0,12.0,42,99.99,,,-99.99,,2013-02-03 20:42:00,
2013-02-03 15:52:00,72.0,48.0,30.08,NNW,345,7.0,13.0,42,99.99,,,-99.99,,2013-02-03 20:52:00,
2013-02-03 16:03:00,71.0,47.0,30.08,NNW,333,7.0,11.0,43,99.99,,,-99.99,,2013-02-03 21:03:00,
2013-02-03 16:11:00,71.0,47.0,30.08,NNW,333,7.0,11.0,43,99.99,,,-99.99,,2013-02-03 21:11:00,
2013-02-03 16:21:00,71.0,46.0,30.08,NNW,345,6.0,10.0,41,99.99,,,-99.99,,2013-02-03 21:21:00,
2013-02-03 16:32:00,71.0,43.0,30.08,NW,307,9.0,15.0,37,99.99,,,-99.99,,2013-02-03 21:32:00,
2013-02-03 16:42:00,71.0,43.0,30.08,NW,307,9.0,15.0,37,99.99,,,-99.99,,2013-02-03 21:42:00,
2013-02-03 16:52:00,71.0,45.0,30.08,WNW,298,7.0,12.0,40,99.99,,,-99.99,,2013-02-03 21:52:00,
2013-02-03 17:01:00,71.0,47.0,30.08,West,278,9.0,15.0,42,99.99,,,-99.99,,2013-02-03 22:01:00,
2013-02-03 17:11:00,71.0,47.0,30.08,West,278,9.0,15.0,42,99.99,,,-99.99,,2013-02-03 22:11:00,
2013-02-03 17:21:00,70.0,47.0,30.08,NW,314,7.0,13.0,44,99.99,,,-99.99,,2013-02-03 22:21:00,
2013-02-03 17:32:00,69.0,47.0,30.08,NW,314,5.0,11.0,45,99.99,,,-99.99,,2013-02-03 22:32:00,
2013-02-03 17:42:00,69.0,47.0,30.08,NW,314,5.0,11.0,45,99.99,,,-99.99,,2013-02-03 22:42:00,
2013-02-03 17:52:00,69.0,46.0,30.08,NW,314,7.0,11.0,43,99.99,,,-99.99,,2013-02-03 22:52:00,
2013-02-03 18:01:00,68.0,45.0,30.08,NNW,329,7.0,13.0,43,99.99,,,-99.99,,2013-02-03 23:01:00,
2013-02-03 18:12:00,68.0,45.0,30.08,NNW,329,7.0,13.0,43,99.99,,,-99.99,,2013-02-03 23:12:00,
2013-02-03 18:22:00,67.0,45.0,30.09,NW,304,5.0,8.0,45,99.99,,,-99.99,,2013-02-03 23:22:00,
2013-02-03 18:32:00,66.0,46.0,30.09,NNW,328,2.0,5.0,48,99.99,,,-99.99,,2013-02-03 23:32:00,
2013-02-03 18:42:00,66.0,46.0,30.09,NNW,328,2.0,5.0,48,99.99,,,-99.99,,2013-02-03 23:42:00,
2013-02-03 18:52:00,66.0,47.0,30.09,NW,305,2.0,5.0,50,99.99,,,-99.99,,2013-02-03 23:52:00,
2013-02-03 19:02:00,65.0,47.0,30.09,North,0,0.0,0.0,52,99.99,,,-99.99,,2013-02-04 00:02:00,
2013-02-03 19:11:00,65.0,47.0,30.09,North,0,0.0,0.0,52,99.99,,,-99.99,,2013-02-04 00:11:00,
2013-02-03 19:22:00,63.0,47.0,30.09,North,0,0.0,0.0,55,99.99,,,-99.99,,2013-02-04 00:22:00,
2013-02-03 19:32:00,62.0,47.0,30.10,NW,315,2.0,6.0,58,99.99,,,-99.99,,2013-02-04 00:32:00,
2013-02-03 19:42:00,62.0,47.0,30.10,NW,315,2.0,6.0,58,99.99,,,-99.99,,2013-02-04 00:42:00,
2013-02-03 19:52:00,62.0,47.0,30.10,NNW,330,4.0,7.0,57,99.99,,,-99.99,,2013-02-04 00:52:00,
2013-02-03 20:01:00,62.0,47.0,30.11,NW,308,3.0,6.0,58,99.99,,,-99.99,,2013-02-04 01:01:00,
2013-02-03 20:11:00,61.0,47.0,30.11,NW,326,2.0,4.0,59,99.99,,,-99.99,,2013-02-04 01:11:00,
2013-02-03 20:21:00,61.0,47.0,30.11,NW,326,2.0,4.0,59,99.99,,,-99.99,,2013-02-04 01:21:00,
2013-02-03 20:32:00,60.0,46.0,30.12,NW,309,1.0,4.0,60,99.99,,,-99.99,,2013-02-04 01:32:00,
2013-02-03 20:42:00,60.0,46.0,30.12,NW,309,1.0,4.0,60,99.99,,,-99.99,,2013-02-04 01:42:00,
2013-02-03 20:52:00,59.0,46.0,30.12,NNW,328,2.0,6.0,62,99.99,,,-99.99,,2013-02-04 01:52:00,
2013-02-03 21:02:00,58.0,45.0,30.12,North,0,0.0,0.0,63,99.99,,,-99.99,,2013-02-04 02:02:00,
2013-02-03 21:11:00,58.0,45.0,30.12,North,0,0.0,0.0,63,99.99,,,-99.99,,2013-02-04 02:11:00,
2013-02-03 21:21:00,57.0,45.0,30.12,North,0,0.0,0.0,64,99.99,,,-99.99,,2013-02-04 02:21:00,
2013-02-03 21:32:00,55.0,44.0,30.12,North,0,0.0,0.0,67,99.99,,,-99.99,,2013-02-04 02:32:00,
2013-02-03 21:41:00,55.0,44.0,30.12,North,0,0.0,0.0,67,99.99,,,-99.99,,2013-02-04 02:41:00,
2013-02-03 21:52:00,53.0,45.0,30.12,North,0,0.0,0.0,74,99.99,,,-99.99,,2013-02-04 02:52:00,
2013-02-03 22:02:00,53.0,46.0,30.12,NW,311,2.0,5.0,78,99.99,,,-99.99,,2013-02-04 03:02:00,
2013-02-03 22:11:00,53.0,47.0,30.13,West,280,2.0,3.0,80,99.99,,,-99.99,,2013-02-04 03:11:00,
2013-02-03 22:21:00,53.0,47.0,30.13,West,280,2.0,3.0,80,99.99,,,-99.99,,2013-02-04 03:21:00,
2013-02-03 22:32:00,52.0,48.0,30.13,West,273,0.0,2.0,85,99.99,,,-99.99,,2013-02-04 03:32:00,
2013-02-03 22:42:00,52.0,48.0,30.13,West,273,0.0,2.0,85,99.99,,,-99.99,,2013-02-04 03:42:00,
2013-02-03 22:52:00,51.0,48.0,30.14,NNW,329,2.0,4.0,89,99.99,,,-99.99,,2013-02-04 03:52:00,
2013-02-03 23:01:00,48.0,45.0,30.14,NW,325,0.0,3.0,91,99.99,,,-99.99,,2013-02-04 04:01:00,
2013-02-03 23:11:00,48.0,45.0,30.14,NW,325,0.0,3.0,91,99.99,,,-99.99,,2013-02-04 04:11:00,
2013-02-03 23:21:00,49.0,48.0,30.14,West,263,1.0,2.0,95,99.99,,,-99.99,,2013-02-04 04:21:00,
2013-02-03 23:32:00,49.0,48.0,30.14,North,0,0.0,0.0,96,99.99,,,-99.99,,2013-02-04 04:32:00,
2013-02-03 23:42:00,49.0,48.0,30.14,North,0,0.0,0.0,96,99.99,,,-99.99,,2013-02-04 04:42:00,
2013-02-03 23:52:00,48.0,47.0,30.13,North,0,0.0,0.0,95,99.99,,,-99.99,,2013-02-04 04:52:00,